sensor_id;sensor_type;location;lat;lon;timestamp;temperature;humidity
68217;DHT22;55037;52.354;4.992;2023-04-01T00:00:08;11.80;92.00
68217;DHT22;55037;52.354;4.992;2023-04-01T00:02:38;11.70;92.00
68217;DHT22;55037;52.354;4.992;2023-04-01T00:05:06;11.80;92.10
68217;DHT22;55037;52.354;4.992;2023-04-01T00:07:33;11.80;92.00
68217;DHT22;55037;52.354;4.992;2023-04-01T00:10:00;11.70;92.00
68217;DHT22;55037;52.354;4.992;2023-04-01T00:12:28;11.70;92.00
68217;DHT22;55037;52.354;4.992;2023-04-01T00:14:55;11.70;92.00
68217;DHT22;55037;52.354;4.992;2023-04-01T00:17:22;11.60;92.00
68217;DHT22;55037;52.354;4.992;2023-04-01T00:19:50;11.60;92.20
68217;DHT22;55037;52.354;4.992;2023-04-01T00:22:17;11.60;92.20
68217;DHT22;55037;52.354;4.992;2023-04-01T00:24:44;11.60;92.10
68217;DHT22;55037;52.354;4.992;2023-04-01T00:27:12;11.60;92.20
68217;DHT22;55037;52.354;4.992;2023-04-01T00:29:42;11.60;92.10
68217;DHT22;55037;52.354;4.992;2023-04-01T00:32:09;11.60;92.10
68217;DHT22;55037;52.354;4.992;2023-04-01T00:34:37;11.50;92.20
68217;DHT22;55037;52.354;4.992;2023-04-01T00:37:05;11.60;92.20
68217;DHT22;55037;52.354;4.992;2023-04-01T00:39:34;11.50;92.30
68217;DHT22;55037;52.354;4.992;2023-04-01T00:42:03;11.60;92.20
68217;DHT22;55037;52.354;4.992;2023-04-01T00:44:33;11.50;92.20
68217;DHT22;55037;52.354;4.992;2023-04-01T00:47:01;11.50;92.10
68217;DHT22;55037;52.354;4.992;2023-04-01T00:49:32;11.50;92.00
68217;DHT22;55037;52.354;4.992;2023-04-01T00:52:03;11.50;92.10
68217;DHT22;55037;52.354;4.992;2023-04-01T00:54:32;11.50;92.20
68217;DHT22;55037;52.354;4.992;2023-04-01T00:57:03;11.50;92.10
68217;DHT22;55037;52.354;4.992;2023-04-01T00:59:36;11.50;92.00
68217;DHT22;55037;52.354;4.992;2023-04-01T01:02:07;11.40;92.50
68217;DHT22;55037;52.354;4.992;2023-04-01T01:04:35;11.40;92.30
68217;DHT22;55037;52.354;4.992;2023-04-01T01:10:21;11.50;92.20
68217;DHT22;55037;52.354;4.992;2023-04-01T01:13:25;11.50;92.20
68217;DHT22;55037;52.354;4.992;2023-04-01T01:16:05;11.50;92.10
68217;DHT22;55037;52.354;4.992;2023-04-01T01:18:48;11.50;92.00
68217;DHT22;55037;52.354;4.992;2023-04-01T01:27:18;11.40;92.20
68217;DHT22;55037;52.354;4.992;2023-04-01T01:36:04;11.40;92.20
68217;DHT22;55037;52.354;4.992;2023-04-01T01:38:35;11.40;92.20
68217;DHT22;55037;52.354;4.992;2023-04-01T01:41:05;11.40;92.20
68217;DHT22;55037;52.354;4.992;2023-04-01T01:43:37;11.50;92.20
68217;DHT22;55037;52.354;4.992;2023-04-01T01:46:10;11.50;92.20
68217;DHT22;55037;52.354;4.992;2023-04-01T01:48:41;11.50;92.20
68217;DHT22;55037;52.354;4.992;2023-04-01T01:51:09;11.50;92.20
68217;DHT22;55037;52.354;4.992;2023-04-01T01:53:36;11.60;92.20
68217;DHT22;55037;52.354;4.992;2023-04-01T01:56:04;11.60;92.20
68217;DHT22;55037;52.354;4.992;2023-04-01T01:58:43;11.60;92.10
68217;DHT22;55037;52.354;4.992;2023-04-01T02:01:20;11.60;92.10
68217;DHT22;55037;52.354;4.992;2023-04-01T02:03:50;11.60;92.00
68217;DHT22;55037;52.354;4.992;2023-04-01T02:06:22;11.60;92.10
68217;DHT22;55037;52.354;4.992;2023-04-01T02:08:56;11.60;92.30
68217;DHT22;55037;52.354;4.992;2023-04-01T02:14:10;11.70;92.10
68217;DHT22;55037;52.354;4.992;2023-04-01T02:16:45;11.70;92.20
68217;DHT22;55037;52.354;4.992;2023-04-01T02:19:15;11.70;92.10
68217;DHT22;55037;52.354;4.992;2023-04-01T02:21:56;11.70;92.10
68217;DHT22;55037;52.354;4.992;2023-04-01T02:24:26;11.70;92.10
68217;DHT22;55037;52.354;4.992;2023-04-01T02:26:54;11.70;92.10
68217;DHT22;55037;52.354;4.992;2023-04-01T02:29:23;11.70;92.10
68217;DHT22;55037;52.354;4.992;2023-04-01T02:31:53;11.70;92.20
68217;DHT22;55037;52.354;4.992;2023-04-01T02:34:22;11.70;92.20
68217;DHT22;55037;52.354;4.992;2023-04-01T02:36:51;11.70;92.20
68217;DHT22;55037;52.354;4.992;2023-04-01T02:39:19;11.70;92.20
68217;DHT22;55037;52.354;4.992;2023-04-01T02:41:46;11.70;92.20
68217;DHT22;55037;52.354;4.992;2023-04-01T02:44:15;11.70;92.20
68217;DHT22;55037;52.354;4.992;2023-04-01T02:46:43;11.80;92.20
68217;DHT22;55037;52.354;4.992;2023-04-01T02:49:10;11.80;92.20
68217;DHT22;55037;52.354;4.992;2023-04-01T02:51:38;11.70;92.20
68217;DHT22;55037;52.354;4.992;2023-04-01T02:54:06;11.80;92.20
68217;DHT22;55037;52.354;4.992;2023-04-01T02:56:33;11.80;92.30
68217;DHT22;55037;52.354;4.992;2023-04-01T02:59:00;11.80;92.30
68217;DHT22;55037;52.354;4.992;2023-04-01T03:01:27;11.80;92.30
68217;DHT22;55037;52.354;4.992;2023-04-01T03:03:55;11.80;92.30
68217;DHT22;55037;52.354;4.992;2023-04-01T03:06:22;11.80;92.30
68217;DHT22;55037;52.354;4.992;2023-04-01T03:08:49;11.80;92.50
68217;DHT22;55037;52.354;4.992;2023-04-01T03:11:17;11.90;92.50
68217;DHT22;55037;52.354;4.992;2023-04-01T03:13:44;12.00;92.50
68217;DHT22;55037;52.354;4.992;2023-04-01T03:16:11;12.00;92.50
68217;DHT22;55037;52.354;4.992;2023-04-01T03:18:39;12.10;92.40
68217;DHT22;55037;52.354;4.992;2023-04-01T03:21:14;12.10;92.40
68217;DHT22;55037;52.354;4.992;2023-04-01T03:23:42;12.10;92.40
68217;DHT22;55037;52.354;4.992;2023-04-01T03:26:09;12.10;92.40
68217;DHT22;55037;52.354;4.992;2023-04-01T03:28:37;12.20;92.30
68217;DHT22;55037;52.354;4.992;2023-04-01T03:31:04;12.20;92.30
68217;DHT22;55037;52.354;4.992;2023-04-01T03:33:40;12.20;92.30
68217;DHT22;55037;52.354;4.992;2023-04-01T03:36:07;12.20;92.20
68217;DHT22;55037;52.354;4.992;2023-04-01T03:38:35;12.20;92.10
68217;DHT22;55037;52.354;4.992;2023-04-01T03:41:03;12.10;92.10
68217;DHT22;55037;52.354;4.992;2023-04-01T03:43:32;12.10;92.20
68217;DHT22;55037;52.354;4.992;2023-04-01T03:46:00;12.10;92.20
68217;DHT22;55037;52.354;4.992;2023-04-01T03:48:27;12.10;92.20
68217;DHT22;55037;52.354;4.992;2023-04-01T03:50:55;12.10;92.30
68217;DHT22;55037;52.354;4.992;2023-04-01T03:53:23;12.10;92.20
68217;DHT22;55037;52.354;4.992;2023-04-01T03:55:51;12.10;92.20
68217;DHT22;55037;52.354;4.992;2023-04-01T03:58:19;12.10;92.30
68217;DHT22;55037;52.354;4.992;2023-04-01T04:00:46;12.10;92.30
68217;DHT22;55037;52.354;4.992;2023-04-01T04:03:14;12.20;92.30
68217;DHT22;55037;52.354;4.992;2023-04-01T04:05:49;12.20;92.30
68217;DHT22;55037;52.354;4.992;2023-04-01T04:08:17;12.20;92.40
68217;DHT22;55037;52.354;4.992;2023-04-01T04:10:45;12.20;92.30
68217;DHT22;55037;52.354;4.992;2023-04-01T04:13:13;12.20;92.30
68217;DHT22;55037;52.354;4.992;2023-04-01T04:15:48;12.30;92.30
68217;DHT22;55037;52.354;4.992;2023-04-01T04:18:15;12.30;92.30
68217;DHT22;55037;52.354;4.992;2023-04-01T04:20:46;12.30;92.20
68217;DHT22;55037;52.354;4.992;2023-04-01T04:23:19;12.30;92.20
68217;DHT22;55037;52.354;4.992;2023-04-01T04:26:04;12.30;92.30
68217;DHT22;55037;52.354;4.992;2023-04-01T04:28:32;12.30;92.20
68217;DHT22;55037;52.354;4.992;2023-04-01T04:31:01;12.30;92.20
68217;DHT22;55037;52.354;4.992;2023-04-01T04:33:28;12.30;92.20
68217;DHT22;55037;52.354;4.992;2023-04-01T04:35:57;12.30;92.10
68217;DHT22;55037;52.354;4.992;2023-04-01T04:38:25;12.40;92.10
68217;DHT22;55037;52.354;4.992;2023-04-01T04:40:53;12.40;92.00
68217;DHT22;55037;52.354;4.992;2023-04-01T04:43:21;12.40;92.00
68217;DHT22;55037;52.354;4.992;2023-04-01T04:45:49;12.40;92.00
68217;DHT22;55037;52.354;4.992;2023-04-01T04:48:18;12.40;91.90
68217;DHT22;55037;52.354;4.992;2023-04-01T04:50:49;12.30;91.90
68217;DHT22;55037;52.354;4.992;2023-04-01T04:53:19;12.30;91.90
68217;DHT22;55037;52.354;4.992;2023-04-01T04:55:48;12.30;91.90
68217;DHT22;55037;52.354;4.992;2023-04-01T04:58:32;12.30;92.00
68217;DHT22;55037;52.354;4.992;2023-04-01T05:01:12;12.30;92.00
68217;DHT22;55037;52.354;4.992;2023-04-01T05:03:40;12.40;91.90
68217;DHT22;55037;52.354;4.992;2023-04-01T05:06:09;12.30;91.80
68217;DHT22;55037;52.354;4.992;2023-04-01T05:08:37;12.30;91.90
68217;DHT22;55037;52.354;4.992;2023-04-01T05:11:09;12.30;91.90
68217;DHT22;55037;52.354;4.992;2023-04-01T05:13:41;12.40;91.90
68217;DHT22;55037;52.354;4.992;2023-04-01T05:16:14;12.40;91.80
68217;DHT22;55037;52.354;4.992;2023-04-01T05:18:42;12.30;91.70
68217;DHT22;55037;52.354;4.992;2023-04-01T05:21:11;12.30;92.20
68217;DHT22;55037;52.354;4.992;2023-04-01T05:23:39;12.30;91.80
68217;DHT22;55037;52.354;4.992;2023-04-01T05:26:09;12.30;91.90
68217;DHT22;55037;52.354;4.992;2023-04-01T05:28:37;12.30;91.80
68217;DHT22;55037;52.354;4.992;2023-04-01T05:31:06;12.30;91.90
68217;DHT22;55037;52.354;4.992;2023-04-01T05:33:37;12.30;91.90
68217;DHT22;55037;52.354;4.992;2023-04-01T05:36:07;12.30;91.80
68217;DHT22;55037;52.354;4.992;2023-04-01T05:38:35;12.30;91.80
68217;DHT22;55037;52.354;4.992;2023-04-01T05:41:03;12.20;91.80
68217;DHT22;55037;52.354;4.992;2023-04-01T05:43:33;12.20;91.90
68217;DHT22;55037;52.354;4.992;2023-04-01T05:46:12;12.20;91.90
68217;DHT22;55037;52.354;4.992;2023-04-01T05:48:49;12.20;92.00
68217;DHT22;55037;52.354;4.992;2023-04-01T05:51:16;12.20;92.00
68217;DHT22;55037;52.354;4.992;2023-04-01T05:53:44;12.20;92.00
68217;DHT22;55037;52.354;4.992;2023-04-01T05:56:12;12.20;92.10
68217;DHT22;55037;52.354;4.992;2023-04-01T05:58:50;12.20;92.00
68217;DHT22;55037;52.354;4.992;2023-04-01T06:01:18;12.30;92.00
68217;DHT22;55037;52.354;4.992;2023-04-01T06:03:46;12.20;92.00
68217;DHT22;55037;52.354;4.992;2023-04-01T06:06:16;12.30;92.10
68217;DHT22;55037;52.354;4.992;2023-04-01T06:08:46;12.30;92.10
68217;DHT22;55037;52.354;4.992;2023-04-01T06:20:27;12.30;92.00
68217;DHT22;55037;52.354;4.992;2023-04-01T06:30:42;12.40;91.90
68217;DHT22;55037;52.354;4.992;2023-04-01T06:33:35;12.30;91.80
68217;DHT22;55037;52.354;4.992;2023-04-01T06:36:21;12.30;91.90
68217;DHT22;55037;52.354;4.992;2023-04-01T06:44:40;12.40;92.10
68217;DHT22;55037;52.354;4.992;2023-04-01T06:50:56;12.40;91.80
68217;DHT22;55037;52.354;4.992;2023-04-01T06:56:48;12.40;91.90
68217;DHT22;55037;52.354;4.992;2023-04-01T06:59:25;12.40;91.80
68217;DHT22;55037;52.354;4.992;2023-04-01T07:04:34;12.40;92.00
68217;DHT22;55037;52.354;4.992;2023-04-01T07:07:10;12.40;91.90
68217;DHT22;55037;52.354;4.992;2023-04-01T07:09:52;12.50;92.00
68217;DHT22;55037;52.354;4.992;2023-04-01T07:15:33;12.60;91.90
68217;DHT22;55037;52.354;4.992;2023-04-01T07:18:25;12.70;91.60
68217;DHT22;55037;52.354;4.992;2023-04-01T07:20:56;12.60;91.60
68217;DHT22;55037;52.354;4.992;2023-04-01T07:23:28;12.60;91.60
68217;DHT22;55037;52.354;4.992;2023-04-01T07:29:00;12.60;91.70
68217;DHT22;55037;52.354;4.992;2023-04-01T07:34:19;12.70;91.70
68217;DHT22;55037;52.354;4.992;2023-04-01T07:37:02;12.80;91.80
68217;DHT22;55037;52.354;4.992;2023-04-01T07:39:53;12.90;91.90
68217;DHT22;55037;52.354;4.992;2023-04-01T07:42:38;13.00;91.80
68217;DHT22;55037;52.354;4.992;2023-04-01T07:45:31;13.10;91.70
68217;DHT22;55037;52.354;4.992;2023-04-01T07:48:18;13.20;91.50
68217;DHT22;55037;52.354;4.992;2023-04-01T07:53:25;13.20;91.30
68217;DHT22;55037;52.354;4.992;2023-04-01T07:56:08;13.30;91.50
68217;DHT22;55037;52.354;4.992;2023-04-01T08:02:09;13.50;91.30
68217;DHT22;55037;52.354;4.992;2023-04-01T08:04:55;13.60;91.30
68217;DHT22;55037;52.354;4.992;2023-04-01T08:07:43;13.60;90.90
68217;DHT22;55037;52.354;4.992;2023-04-01T08:17:09;13.60;90.60
68217;DHT22;55037;52.354;4.992;2023-04-01T08:22:42;13.80;91.00
68217;DHT22;55037;52.354;4.992;2023-04-01T08:25:25;13.90;90.70
68217;DHT22;55037;52.354;4.992;2023-04-01T08:28:03;14.00;90.60
68217;DHT22;55037;52.354;4.992;2023-04-01T08:33:26;14.00;90.60
68217;DHT22;55037;52.354;4.992;2023-04-01T08:38:44;14.20;90.20
68217;DHT22;55037;52.354;4.992;2023-04-01T08:41:42;14.20;90.30
68217;DHT22;55037;52.354;4.992;2023-04-01T08:45:09;14.30;90.40
68217;DHT22;55037;52.354;4.992;2023-04-01T08:48:05;14.40;90.30
68217;DHT22;55037;52.354;4.992;2023-04-01T08:56:50;14.50;89.70
68217;DHT22;55037;52.354;4.992;2023-04-01T09:00:00;14.50;90.00
68217;DHT22;55037;52.354;4.992;2023-04-01T09:28:47;15.10;89.60
68217;DHT22;55037;52.354;4.992;2023-04-01T09:40:24;15.70;88.60
68217;DHT22;55037;52.354;4.992;2023-04-01T09:54:15;15.40;88.10
68217;DHT22;55037;52.354;4.992;2023-04-01T10:00:16;15.40;87.10
68217;DHT22;55037;52.354;4.992;2023-04-01T10:20:40;14.90;90.20
68217;DHT22;55037;52.354;4.992;2023-04-01T10:56:45;16.40;87.70
68217;DHT22;55037;52.354;4.992;2023-04-01T11:06:59;16.40;84.30
68217;DHT22;55037;52.354;4.992;2023-04-01T11:13:25;16.20;87.40
68217;DHT22;55037;52.354;4.992;2023-04-01T11:16:09;16.30;88.40
68217;DHT22;55037;52.354;4.992;2023-04-01T11:22:08;16.80;87.80
68217;DHT22;55037;52.354;4.992;2023-04-01T11:25:15;17.00;87.00
68217;DHT22;55037;52.354;4.992;2023-04-01T11:42:13;17.50;85.60
68217;DHT22;55037;52.354;4.992;2023-04-01T11:47:57;17.90;84.60
68217;DHT22;55037;52.354;4.992;2023-04-01T11:56:00;17.60;84.60
68217;DHT22;55037;52.354;4.992;2023-04-01T11:58:53;17.60;85.20
68217;DHT22;55037;52.354;4.992;2023-04-01T12:12:48;18.70;84.20
68217;DHT22;55037;52.354;4.992;2023-04-01T12:15:48;19.00;82.90
68217;DHT22;55037;52.354;4.992;2023-04-01T12:18:42;18.90;81.80
68217;DHT22;55037;52.354;4.992;2023-04-01T12:21:32;18.60;81.80
68217;DHT22;55037;52.354;4.992;2023-04-01T12:38:27;17.80;87.10
68217;DHT22;55037;52.354;4.992;2023-04-01T12:43:52;17.90;84.30
68217;DHT22;55037;52.354;4.992;2023-04-01T12:51:41;16.60;86.40
68217;DHT22;55037;52.354;4.992;2023-04-01T13:10:58;15.50;87.80
68217;DHT22;55037;52.354;4.992;2023-04-01T13:13:35;15.40;88.50
68217;DHT22;55037;52.354;4.992;2023-04-01T13:16:15;15.20;89.00
68217;DHT22;55037;52.354;4.992;2023-04-01T13:19:01;15.10;89.40
68217;DHT22;55037;52.354;4.992;2023-04-01T13:24:50;14.70;89.10
68217;DHT22;55037;52.354;4.992;2023-04-01T13:27:34;14.60;89.50
68217;DHT22;55037;52.354;4.992;2023-04-01T13:33:32;14.40;90.20
68217;DHT22;55037;52.354;4.992;2023-04-01T13:38:59;14.20;90.10
68217;DHT22;55037;52.354;4.992;2023-04-01T13:44:27;14.00;90.40
68217;DHT22;55037;52.354;4.992;2023-04-01T13:47:23;13.90;90.70
68217;DHT22;55037;52.354;4.992;2023-04-01T13:53:06;14.00;90.70
68217;DHT22;55037;52.354;4.992;2023-04-01T14:03:48;14.00;90.60
68217;DHT22;55037;52.354;4.992;2023-04-01T14:06:40;14.00;90.50
68217;DHT22;55037;52.354;4.992;2023-04-01T14:12:36;13.90;90.60
68217;DHT22;55037;52.354;4.992;2023-04-01T14:23:37;14.10;90.90
68217;DHT22;55037;52.354;4.992;2023-04-01T14:35:09;14.00;90.50
68217;DHT22;55037;52.354;4.992;2023-04-01T14:41:29;14.00;90.70
68217;DHT22;55037;52.354;4.992;2023-04-01T14:49:30;13.70;90.40
68217;DHT22;55037;52.354;4.992;2023-04-01T14:52:30;13.50;90.50
68217;DHT22;55037;52.354;4.992;2023-04-01T14:54:58;13.40;90.70
68217;DHT22;55037;52.354;4.992;2023-04-01T14:57:31;13.50;90.90
68217;DHT22;55037;52.354;4.992;2023-04-01T15:00:17;13.50;90.90
68217;DHT22;55037;52.354;4.992;2023-04-01T15:08:01;13.40;90.80
68217;DHT22;55037;52.354;4.992;2023-04-01T15:24:22;13.40;90.80
68217;DHT22;55037;52.354;4.992;2023-04-01T15:29:51;13.40;90.70
68217;DHT22;55037;52.354;4.992;2023-04-01T15:35:28;13.40;90.70
68217;DHT22;55037;52.354;4.992;2023-04-01T15:38:17;13.40;90.80
68217;DHT22;55037;52.354;4.992;2023-04-01T15:41:24;13.40;90.60
68217;DHT22;55037;52.354;4.992;2023-04-01T15:43:55;13.40;90.70
68217;DHT22;55037;52.354;4.992;2023-04-01T15:46:44;13.40;90.70
68217;DHT22;55037;52.354;4.992;2023-04-01T15:49:36;13.40;90.70
68217;DHT22;55037;52.354;4.992;2023-04-01T16:05:56;13.10;90.70
68217;DHT22;55037;52.354;4.992;2023-04-01T16:17:20;13.10;90.70
68217;DHT22;55037;52.354;4.992;2023-04-01T16:19:56;13.10;90.60
68217;DHT22;55037;52.354;4.992;2023-04-01T16:23:17;13.00;90.50
68217;DHT22;55037;52.354;4.992;2023-04-01T16:25:40;13.00;90.50
68217;DHT22;55037;52.354;4.992;2023-04-01T16:28:39;13.00;90.60
68217;DHT22;55037;52.354;4.992;2023-04-01T16:31:23;13.00;90.60
68217;DHT22;55037;52.354;4.992;2023-04-01T16:34:16;12.90;90.70
68217;DHT22;55037;52.354;4.992;2023-04-01T16:36:51;12.90;90.60
68217;DHT22;55037;52.354;4.992;2023-04-01T16:45:26;12.80;90.60
68217;DHT22;55037;52.354;4.992;2023-04-01T16:48:13;12.80;90.60
68217;DHT22;55037;52.354;4.992;2023-04-01T16:51:00;12.80;90.60
68217;DHT22;55037;52.354;4.992;2023-04-01T16:53:45;12.70;90.40
68217;DHT22;55037;52.354;4.992;2023-04-01T16:56:23;12.60;90.30
68217;DHT22;55037;52.354;4.992;2023-04-01T16:59:15;12.50;90.30
68217;DHT22;55037;52.354;4.992;2023-04-01T17:05:08;12.20;90.60
68217;DHT22;55037;52.354;4.992;2023-04-01T17:19:17;11.80;91.00
68217;DHT22;55037;52.354;4.992;2023-04-01T17:22:00;11.80;91.00
68217;DHT22;55037;52.354;4.992;2023-04-01T17:30:24;11.70;91.10
68217;DHT22;55037;52.354;4.992;2023-04-01T17:36:01;11.70;91.30
68217;DHT22;55037;52.354;4.992;2023-04-01T17:44:26;11.70;91.10
68217;DHT22;55037;52.354;4.992;2023-04-01T17:52:28;11.60;91.30
68217;DHT22;55037;52.354;4.992;2023-04-01T18:06:26;11.70;91.10
68217;DHT22;55037;52.354;4.992;2023-04-01T18:14:30;11.60;91.00
68217;DHT22;55037;52.354;4.992;2023-04-01T18:17:08;11.60;91.00
68217;DHT22;55037;52.354;4.992;2023-04-01T18:22:42;11.70;91.00
68217;DHT22;55037;52.354;4.992;2023-04-01T18:30:34;11.60;90.80
68217;DHT22;55037;52.354;4.992;2023-04-01T18:33:28;11.60;90.80
68217;DHT22;55037;52.354;4.992;2023-04-01T18:36:13;11.60;90.80
68217;DHT22;55037;52.354;4.992;2023-04-01T18:42:03;11.50;90.80
68217;DHT22;55037;52.354;4.992;2023-04-01T18:44:50;11.60;90.80
68217;DHT22;55037;52.354;4.992;2023-04-01T18:48:30;11.60;90.90
68217;DHT22;55037;52.354;4.992;2023-04-01T18:58:48;11.50;90.70
68217;DHT22;55037;52.354;4.992;2023-04-01T19:01:23;11.50;90.60
68217;DHT22;55037;52.354;4.992;2023-04-01T19:04:14;11.40;90.70
68217;DHT22;55037;52.354;4.992;2023-04-01T19:06:56;11.40;90.60
68217;DHT22;55037;52.354;4.992;2023-04-01T19:09:43;11.40;90.50
68217;DHT22;55037;52.354;4.992;2023-04-01T19:12:34;11.40;90.50
68217;DHT22;55037;52.354;4.992;2023-04-01T19:15:13;11.40;90.50
68217;DHT22;55037;52.354;4.992;2023-04-01T19:26:53;11.30;90.50
68217;DHT22;55037;52.354;4.992;2023-04-01T19:35:28;11.20;90.40
68217;DHT22;55037;52.354;4.992;2023-04-01T19:38:16;11.20;90.30
68217;DHT22;55037;52.354;4.992;2023-04-01T19:40:54;11.10;90.30
68217;DHT22;55037;52.354;4.992;2023-04-01T19:49:01;11.00;90.30
68217;DHT22;55037;52.354;4.992;2023-04-01T19:51:33;10.90;90.30
68217;DHT22;55037;52.354;4.992;2023-04-01T19:54:04;10.90;90.30
68217;DHT22;55037;52.354;4.992;2023-04-01T19:59:31;10.90;90.30
68217;DHT22;55037;52.354;4.992;2023-04-01T20:04:51;10.80;90.30
68217;DHT22;55037;52.354;4.992;2023-04-01T20:07:53;10.80;90.40
68217;DHT22;55037;52.354;4.992;2023-04-01T20:10:30;10.80;90.40
68217;DHT22;55037;52.354;4.992;2023-04-01T20:15:47;10.80;90.20
68217;DHT22;55037;52.354;4.992;2023-04-01T20:26:43;10.60;90.30
68217;DHT22;55037;52.354;4.992;2023-04-01T20:34:50;10.50;90.10
68217;DHT22;55037;52.354;4.992;2023-04-01T20:37:46;10.50;90.10
68217;DHT22;55037;52.354;4.992;2023-04-01T20:51:19;10.40;90.00
68217;DHT22;55037;52.354;4.992;2023-04-01T20:54:19;10.40;90.00
68217;DHT22;55037;52.354;4.992;2023-04-01T21:10:41;10.20;89.90
68217;DHT22;55037;52.354;4.992;2023-04-01T21:13:31;10.20;89.70
68217;DHT22;55037;52.354;4.992;2023-04-01T21:19:37;10.10;89.80
68217;DHT22;55037;52.354;4.992;2023-04-01T21:24:53;10.10;89.80
68217;DHT22;55037;52.354;4.992;2023-04-01T21:38:34;10.00;90.00
68217;DHT22;55037;52.354;4.992;2023-04-01T21:44:29;10.10;90.00
68217;DHT22;55037;52.354;4.992;2023-04-01T21:50:08;10.10;89.90
68217;DHT22;55037;52.354;4.992;2023-04-01T21:56:18;10.10;89.80
68217;DHT22;55037;52.354;4.992;2023-04-01T22:04:32;10.10;90.00
68217;DHT22;55037;52.354;4.992;2023-04-01T22:07:19;10.10;89.80
68217;DHT22;55037;52.354;4.992;2023-04-01T22:12:42;10.10;89.70
68217;DHT22;55037;52.354;4.992;2023-04-01T22:18:17;10.10;89.70
68217;DHT22;55037;52.354;4.992;2023-04-01T22:23:50;10.00;89.50
68217;DHT22;55037;52.354;4.992;2023-04-01T22:29:31;10.00;89.80
68217;DHT22;55037;52.354;4.992;2023-04-01T22:32:18;10.00;89.90
68217;DHT22;55037;52.354;4.992;2023-04-01T22:34:57;10.00;89.80
68217;DHT22;55037;52.354;4.992;2023-04-01T22:41:14;10.00;89.50
68217;DHT22;55037;52.354;4.992;2023-04-01T22:43:11;10.00;89.60
68217;DHT22;55037;52.354;4.992;2023-04-01T22:46:06;10.00;89.30
68217;DHT22;55037;52.354;4.992;2023-04-01T22:48:50;10.00;89.40
68217;DHT22;55037;52.354;4.992;2023-04-01T22:54:20;9.90;89.10
68217;DHT22;55037;52.354;4.992;2023-04-01T22:56:53;9.90;89.10
68217;DHT22;55037;52.354;4.992;2023-04-01T23:02:11;9.80;89.20
68217;DHT22;55037;52.354;4.992;2023-04-01T23:04:42;9.80;89.30
68217;DHT22;55037;52.354;4.992;2023-04-01T23:10:27;9.80;89.30
68217;DHT22;55037;52.354;4.992;2023-04-01T23:13:00;9.70;89.20
68217;DHT22;55037;52.354;4.992;2023-04-01T23:15:29;9.80;89.30
68217;DHT22;55037;52.354;4.992;2023-04-01T23:25:49;9.70;89.10
68217;DHT22;55037;52.354;4.992;2023-04-01T23:28:39;9.70;89.10
68217;DHT22;55037;52.354;4.992;2023-04-01T23:33:57;9.70;89.10
68217;DHT22;55037;52.354;4.992;2023-04-01T23:36:25;9.60;89.10
68217;DHT22;55037;52.354;4.992;2023-04-01T23:38:53;9.60;90.00
68217;DHT22;55037;52.354;4.992;2023-04-01T23:41:31;9.60;89.10
68217;DHT22;55037;52.354;4.992;2023-04-01T23:44:11;9.60;88.80
68217;DHT22;55037;52.354;4.992;2023-04-01T23:46:40;9.60;89.00
68217;DHT22;55037;52.354;4.992;2023-04-01T23:49:35;9.60;89.10
68217;DHT22;55037;52.354;4.992;2023-04-01T23:54:52;9.60;88.80
68217;DHT22;55037;52.354;4.992;2023-04-01T23:57:32;9.50;88.90
